Time;durP1;ratioP1;P1;durP2;ratioP2;P2;SDS_P1;SDS_P2;PMS_P1;PMS_P2;Temp;Humidity;BMP_temperature;BMP_pressure;BME280_temperature;BME280_humidity;BME280_pressure;Samples;Min_cycle;Max_cycle;Signal;HPM_P1;HPM_P2
2021/05/08 00:00:53;;;;;;;0.50;0.47;;;12.70;77.70;;;;;;5036745;28;20049;-69
2021/05/08 00:03:19;;;;;;;0.40;0.40;;;12.70;77.70;;;;;;5027484;28;20053;-69
2021/05/08 00:05:47;;;;;;;0.43;0.43;;;12.70;78.30;;;;;;5019383;28;20054;-69
2021/05/08 00:08:14;;;;;;;0.30;0.30;;;12.70;78.30;;;;;;5018670;28;20057;-69
2021/05/08 00:10:41;;;;;;;0.20;0.20;;;12.70;78.60;;;;;;5016716;28;20073;-69
2021/05/08 00:13:07;;;;;;;0.40;0.40;;;12.60;79.30;;;;;;5019734;28;20042;-69
2021/05/08 00:15:33;;;;;;;0.40;0.40;;;12.60;79.80;;;;;;5020427;28;20116;-69
2021/05/08 00:18:00;;;;;;;0.50;0.50;;;12.50;80.50;;;;;;5032120;28;20137;-69
2021/05/08 00:20:26;;;;;;;0.20;0.20;;;12.50;80.60;;;;;;5033632;28;20064;-69
2021/05/08 00:22:52;;;;;;;0.40;0.40;;;12.50;80.70;;;;;;5033922;28;20699;-69
2021/05/08 00:25:19;;;;;;;0.40;0.32;;;12.60;80.90;;;;;;5033740;28;20146;-69
2021/05/08 00:27:45;;;;;;;0.60;0.52;;;12.60;80.90;;;;;;5031030;28;20042;-69
2021/05/08 00:30:12;;;;;;;0.40;0.40;;;12.60;81.50;;;;;;5033681;28;20055;-69
2021/05/08 00:32:38;;;;;;;0.47;0.40;;;12.50;81.80;;;;;;5047077;28;20110;-69
2021/05/08 00:35:05;;;;;;;0.52;0.50;;;12.50;81.80;;;;;;5033709;28;20481;-69
2021/05/08 00:37:31;;;;;;;1.10;0.68;;;12.50;82.30;;;;;;5031318;28;20119;-69
2021/05/08 00:39:58;;;;;;;0.47;0.47;;;12.50;82.00;;;;;;5032733;28;20157;-69
2021/05/08 00:42:24;;;;;;;0.50;0.50;;;12.50;82.00;;;;;;5033422;28;20094;-69
2021/05/08 00:44:50;;;;;;;0.40;0.40;;;12.50;82.40;;;;;;5033218;28;20045;-69
2021/05/08 00:47:18;;;;;;;0.35;0.35;;;12.50;82.80;;;;;;5035972;28;20139;-69
2021/05/08 00:49:45;;;;;;;0.40;0.40;;;12.50;83.10;;;;;;5037640;28;20124;-69
2021/05/08 00:52:15;;;;;;;0.77;0.57;;;12.50;83.30;;;;;;5037483;28;20053;-69
2021/05/08 00:54:42;;;;;;;0.80;0.60;;;12.50;84.00;;;;;;5038943;28;20085;-69
2021/05/08 00:57:09;;;;;;;0.70;0.50;;;12.50;84.40;;;;;;5035770;28;20080;-69
2021/05/08 00:59:36;;;;;;;0.68;0.63;;;12.50;84.60;;;;;;5040008;28;20131;-69
2021/05/08 01:02:04;;;;;;;0.57;0.50;;;12.50;84.70;;;;;;5036656;28;20076;-69
2021/05/08 01:04:31;;;;;;;0.80;0.52;;;12.50;84.70;;;;;;5039434;28;20092;-69
2021/05/08 01:07:01;;;;;;;1.38;0.73;;;12.60;85.10;;;;;;5036811;28;20056;-69
2021/05/08 01:09:29;;;;;;;0.70;0.50;;;12.50;85.00;;;;;;5039878;28;20607;-69
2021/05/08 01:11:55;;;;;;;0.88;0.70;;;12.50;85.40;;;;;;5036487;28;20452;-69
2021/05/08 01:14:22;;;;;;;1.20;0.70;;;12.50;85.60;;;;;;5033730;28;20199;-69
2021/05/08 01:16:49;;;;;;;0.95;0.60;;;12.50;85.80;;;;;;5033629;28;20484;-69
2021/05/08 01:19:17;;;;;;;0.55;0.52;;;12.50;85.70;;;;;;5033225;28;20111;-69
2021/05/08 01:21:44;;;;;;;0.50;0.50;;;12.60;85.60;;;;;;5033488;28;20061;-69
2021/05/08 01:24:12;;;;;;;0.98;0.55;;;12.60;85.80;;;;;;5033044;28;20064;-69
2021/05/08 01:26:39;;;;;;;1.08;0.70;;;12.60;86.00;;;;;;5033245;28;20100;-69
2021/05/08 01:29:06;;;;;;;0.65;0.50;;;12.60;86.30;;;;;;5028676;28;20037;-69
2021/05/08 01:31:33;;;;;;;0.93;0.60;;;12.70;86.20;;;;;;5025969;28;20095;-69
2021/05/08 01:34:00;;;;;;;0.73;0.70;;;12.70;86.40;;;;;;5032423;28;20052;-69
2021/05/08 01:36:27;;;;;;;1.08;0.60;;;12.70;86.20;;;;;;5033382;28;20045;-69
2021/05/08 01:38:54;;;;;;;1.23;0.70;;;12.70;86.40;;;;;;5033231;28;20132;-69
2021/05/08 01:41:20;;;;;;;0.98;0.70;;;12.80;86.60;;;;;;5032848;28;20124;-69
2021/05/08 01:43:47;;;;;;;1.40;0.80;;;12.70;86.60;;;;;;5032929;28;20187;-69
2021/05/08 01:46:13;;;;;;;0.77;0.55;;;12.70;87.00;;;;;;5032741;28;20156;-69
2021/05/08 01:48:39;;;;;;;1.23;0.65;;;12.70;87.10;;;;;;5032766;28;20485;-69
2021/05/08 01:51:05;;;;;;;0.75;0.60;;;12.70;87.00;;;;;;5032840;28;20041;-69
2021/05/08 01:53:32;;;;;;;1.73;0.90;;;12.70;87.30;;;;;;5033005;28;20861;-69
2021/05/08 01:55:58;;;;;;;1.55;0.70;;;12.70;87.60;;;;;;5032567;28;20123;-69
2021/05/08 01:58:25;;;;;;;0.90;0.63;;;12.70;87.70;;;;;;5032785;28;20132;-69
2021/05/08 02:00:51;;;;;;;1.58;0.90;;;12.70;87.70;;;;;;5032928;28;20205;-69
2021/05/08 02:03:18;;;;;;;0.93;0.60;;;12.70;87.70;;;;;;5032161;28;20386;-69
2021/05/08 02:05:46;;;;;;;0.90;0.63;;;12.70;87.70;;;;;;5032357;28;20136;-69
2021/05/08 02:08:13;;;;;;;1.13;0.63;;;12.70;87.80;;;;;;5031852;28;20132;-69
2021/05/08 02:10:42;;;;;;;1.00;0.70;;;12.70;87.70;;;;;;5032701;28;20175;-69
2021/05/08 02:13:10;;;;;;;1.38;0.80;;;12.70;87.90;;;;;;5032141;28;20041;-69
2021/05/08 02:15:37;;;;;;;1.20;0.77;;;12.80;88.00;;;;;;5032646;28;20046;-69
2021/05/08 02:18:05;;;;;;;1.20;0.68;;;12.80;87.90;;;;;;5032024;28;20099;-69
2021/05/08 02:20:35;;;;;;;1.17;0.65;;;12.90;88.00;;;;;;5032098;28;20183;-69
2021/05/08 02:23:04;;;;;;;1.55;0.90;;;12.90;88.20;;;;;;5032722;28;20500;-69
2021/05/08 02:25:31;;;;;;;1.75;0.80;;;12.90;88.50;;;;;;5032127;28;20045;-69
2021/05/08 02:27:57;;;;;;;0.73;0.50;;;12.90;88.60;;;;;;5032232;28;20049;-69
2021/05/08 02:30:31;;;;;;;1.45;0.85;;;12.90;88.20;;;;;;5031956;28;20119;-69
2021/05/08 02:32:58;;;;;;;1.02;0.70;;;12.90;88.30;;;;;;5031950;28;20199;-69
2021/05/08 02:35:25;;;;;;;1.23;0.60;;;13.00;87.80;;;;;;5031756;28;20402;-69
2021/05/08 02:37:52;;;;;;;0.77;0.60;;;13.10;87.40;;;;;;5032225;28;20098;-69
2021/05/08 02:40:22;;;;;;;0.70;0.63;;;13.20;87.00;;;;;;5031805;28;20114;-69
2021/05/08 02:42:49;;;;;;;1.60;0.88;;;13.30;86.60;;;;;;5032088;28;20098;-69
2021/05/08 02:45:16;;;;;;;1.35;0.90;;;13.30;87.40;;;;;;5032036;28;20184;-69
2021/05/08 02:47:44;;;;;;;0.65;0.65;;;13.30;86.80;;;;;;5031757;28;20188;-69
2021/05/08 02:50:12;;;;;;;0.70;0.50;;;13.30;86.40;;;;;;5027347;28;20045;-69
2021/05/08 02:52:39;;;;;;;1.23;0.80;;;13.40;86.50;;;;;;5030032;28;20037;-69
2021/05/08 02:55:07;;;;;;;0.98;0.60;;;13.40;86.50;;;;;;5032251;28;20088;-69
2021/05/08 02:57:34;;;;;;;1.48;0.98;;;13.40;86.60;;;;;;5031622;28;20053;-69
2021/05/08 03:00:00;;;;;;;1.40;0.80;;;13.50;87.10;;;;;;5032099;28;20049;-69
2021/05/08 03:02:27;;;;;;;1.50;0.88;;;13.40;86.90;;;;;;5031444;28;20075;-69
2021/05/08 03:04:53;;;;;;;1.23;0.70;;;13.40;86.90;;;;;;5031482;28;20060;-69
2021/05/08 03:07:19;;;;;;;1.85;0.90;;;13.50;86.60;;;;;;5031309;28;20517;-69
2021/05/08 03:09:46;;;;;;;0.90;0.70;;;13.60;86.40;;;;;;5031326;28;20045;-69
2021/05/08 03:12:12;;;;;;;1.67;1.00;;;13.60;86.60;;;;;;5030813;28;20404;-69
2021/05/08 03:14:38;;;;;;;0.98;0.70;;;13.50;87.50;;;;;;5031671;28;20516;-69
2021/05/08 03:17:05;;;;;;;1.30;0.88;;;13.50;87.40;;;;;;5031700;28;20125;-69
2021/05/08 03:19:32;;;;;;;1.10;0.80;;;13.50;87.00;;;;;;5031377;28;20056;-69
2021/05/08 03:21:58;;;;;;;1.17;0.60;;;13.50;86.60;;;;;;5035359;28;20434;-69
2021/05/08 03:24:24;;;;;;;1.05;0.85;;;13.60;86.60;;;;;;5035588;28;20132;-69
2021/05/08 03:26:50;;;;;;;0.80;0.65;;;13.60;86.30;;;;;;5035621;28;20417;-69
2021/05/08 03:29:17;;;;;;;1.17;0.90;;;13.60;86.40;;;;;;5035110;28;20045;-69
2021/05/08 03:31:43;;;;;;;1.35;0.95;;;13.70;86.90;;;;;;5035382;28;20410;-69
2021/05/08 03:34:10;;;;;;;1.45;1.00;;;13.60;87.80;;;;;;5035224;28;20076;-69
2021/05/08 03:36:36;;;;;;;1.52;0.85;;;13.50;88.20;;;;;;5035468;28;20068;-69
2021/05/08 03:39:04;;;;;;;1.33;0.90;;;13.50;88.50;;;;;;5035582;28;20210;-69
2021/05/08 03:41:31;;;;;;;1.17;0.82;;;13.40;88.60;;;;;;5035009;28;20057;-69
2021/05/08 03:43:57;;;;;;;1.60;1.00;;;13.40;88.90;;;;;;5035022;28;20425;-69
2021/05/08 03:46:24;;;;;;;1.33;1.05;;;13.40;89.10;;;;;;5030669;28;20093;-69
2021/05/08 03:48:50;;;;;;;1.58;0.90;;;13.40;89.30;;;;;;5029942;28;20081;-69
2021/05/08 03:51:16;;;;;;;1.60;0.90;;;13.40;89.60;;;;;;5035029;28;20046;-69
2021/05/08 03:53:43;;;;;;;1.95;1.00;;;13.40;89.60;;;;;;5034889;28;20056;-69
2021/05/08 03:56:10;;;;;;;1.23;0.90;;;13.40;89.70;;;;;;5034904;28;20042;-69
2021/05/08 03:58:36;;;;;;;1.58;1.00;;;13.40;89.70;;;;;;5034664;28;20053;-69
2021/05/08 04:01:02;;;;;;;1.38;0.85;;;13.40;89.40;;;;;;5035038;28;20128;-69
2021/05/08 04:03:29;;;;;;;2.03;1.02;;;13.40;89.30;;;;;;5034941;28;20504;-70
2021/05/08 04:05:55;;;;;;;2.42;1.30;;;13.50;89.50;;;;;;5034269;28;20140;-69
2021/05/08 04:08:21;;;;;;;1.00;0.80;;;13.50;89.80;;;;;;5030175;28;20192;-69
2021/05/08 04:10:48;;;;;;;1.70;1.00;;;13.40;89.80;;;;;;5043553;28;20076;-69
2021/05/08 04:13:16;;;;;;;1.48;0.95;;;13.50;89.70;;;;;;5034270;28;20080;-69
2021/05/08 04:15:44;;;;;;;1.88;0.90;;;13.50;89.90;;;;;;5034970;28;20048;-69
2021/05/08 04:18:11;;;;;;;1.15;0.90;;;13.50;89.50;;;;;;5034592;28;20084;-69
2021/05/08 04:20:38;;;;;;;1.23;0.88;;;13.50;89.50;;;;;;5034152;28;20049;-69
2021/05/08 04:23:05;;;;;;;1.10;0.90;;;13.50;89.80;;;;;;5034912;28;20477;-69
2021/05/08 04:25:32;;;;;;;1.00;0.75;;;13.60;89.80;;;;;;5034164;28;20555;-69
2021/05/08 04:27:58;;;;;;;0.98;0.88;;;13.60;89.80;;;;;;5034069;28;20413;-69
2021/05/08 04:30:25;;;;;;;1.00;0.73;;;13.60;89.50;;;;;;5034425;28;20037;-69
2021/05/08 04:32:51;;;;;;;0.70;0.70;;;13.70;89.40;;;;;;5034113;28;20154;-69
2021/05/08 04:35:17;;;;;;;0.98;0.73;;;13.70;89.20;;;;;;5034149;28;20045;-69
2021/05/08 04:37:44;;;;;;;0.98;0.85;;;13.70;89.10;;;;;;5034180;28;20045;-69
2021/05/08 04:40:11;;;;;;;0.82;0.82;;;13.80;89.00;;;;;;5034330;28;20137;-69
2021/05/08 04:42:38;;;;;;;0.80;0.80;;;13.80;89.10;;;;;;5029204;28;20049;-69
2021/05/08 04:45:05;;;;;;;0.73;0.73;;;13.80;89.40;;;;;;5026124;28;20520;-69
2021/05/08 04:47:32;;;;;;;0.90;0.90;;;13.80;89.30;;;;;;5033699;28;20450;-69
2021/05/08 04:50:00;;;;;;;1.00;0.90;;;13.80;89.20;;;;;;5033893;28;20516;-69
2021/05/08 04:52:26;;;;;;;1.13;0.82;;;13.80;89.20;;;;;;5033727;28;20406;-69
2021/05/08 04:54:53;;;;;;;1.13;0.80;;;13.90;89.50;;;;;;5034017;28;20124;-70
2021/05/08 04:57:20;;;;;;;0.75;0.70;;;13.90;89.70;;;;;;5033408;28;20049;-70
2021/05/08 04:59:46;;;;;;;0.60;0.60;;;13.90;89.50;;;;;;5033821;28;20583;-69
2021/05/08 05:02:12;;;;;;;0.90;0.70;;;13.90;89.30;;;;;;5034185;28;20134;-70
2021/05/08 05:04:39;;;;;;;0.70;0.70;;;13.90;89.50;;;;;;5033025;28;20111;-69
2021/05/08 05:07:05;;;;;;;0.90;0.80;;;14.00;89.90;;;;;;5033487;28;20136;-70
2021/05/08 05:09:33;;;;;;;0.70;0.70;;;13.90;89.80;;;;;;5032580;28;20533;-69
2021/05/08 05:11:59;;;;;;;0.80;0.80;;;13.90;90.10;;;;;;5033434;28;20046;-69
2021/05/08 05:14:27;;;;;;;0.77;0.73;;;13.90;89.90;;;;;;5025109;28;20183;-70
2021/05/08 05:16:53;;;;;;;0.57;0.50;;;13.90;89.90;;;;;;5033462;28;20175;-70
2021/05/08 05:19:20;;;;;;;0.60;0.60;;;14.00;89.50;;;;;;5033557;28;20563;-70
2021/05/08 05:21:46;;;;;;;0.70;0.70;;;14.00;89.40;;;;;;5033142;28;20051;-69
2021/05/08 05:24:13;;;;;;;0.43;0.43;;;14.10;89.20;;;;;;5033803;28;20172;-70
2021/05/08 05:26:39;;;;;;;0.60;0.60;;;14.10;89.60;;;;;;5032938;28;20088;-69
2021/05/08 05:29:09;;;;;;;0.65;0.50;;;14.10;89.70;;;;;;5033446;28;20482;-69
2021/05/08 05:31:36;;;;;;;0.60;0.50;;;14.10;89.90;;;;;;5032864;28;20048;-69
2021/05/08 05:34:03;;;;;;;0.65;0.60;;;14.10;90.00;;;;;;5032798;28;20045;-70
2021/05/08 05:36:31;;;;;;;0.32;0.32;;;14.10;90.10;;;;;;5033090;28;20132;-69
2021/05/08 05:39:00;;;;;;;0.52;0.50;;;14.10;90.10;;;;;;5032694;28;20519;-69
2021/05/08 05:41:26;;;;;;;0.68;0.60;;;14.10;90.20;;;;;;5032671;28;20132;-69
2021/05/08 05:43:53;;;;;;;0.60;0.55;;;14.10;90.10;;;;;;5032177;28;20094;-69
2021/05/08 05:46:19;;;;;;;0.40;0.40;;;14.10;90.00;;;;;;5033071;28;20572;-70
2021/05/08 05:48:45;;;;;;;0.40;0.40;;;14.10;90.10;;;;;;5032544;28;20049;-70
2021/05/08 05:51:13;;;;;;;0.50;0.50;;;14.10;90.40;;;;;;5033052;28;20128;-70
2021/05/08 05:53:39;;;;;;;0.30;0.30;;;14.00;91.00;;;;;;5032889;28;20045;-70
2021/05/08 05:56:05;;;;;;;0.40;0.40;;;14.00;90.50;;;;;;5032485;28;20489;-69
2021/05/08 05:58:32;;;;;;;0.32;0.30;;;14.00;90.60;;;;;;5032688;28;20192;-69
2021/05/08 06:00:58;;;;;;;0.40;0.40;;;14.00;90.60;;;;;;5032866;28;20414;-70
2021/05/08 06:03:25;;;;;;;0.43;0.43;;;14.00;90.50;;;;;;5032763;28;20057;-69
2021/05/08 06:05:52;;;;;;;0.32;0.32;;;14.10;90.50;;;;;;5032068;28;20119;-69
2021/05/08 06:08:18;;;;;;;0.20;0.20;;;14.10;90.60;;;;;;5032506;28;20049;-69
2021/05/08 06:10:44;;;;;;;0.30;0.20;;;14.10;90.50;;;;;;5032228;28;20755;-69
2021/05/08 06:13:11;;;;;;;0.10;0.10;;;14.20;90.40;;;;;;5032373;28;20046;-69
2021/05/08 06:15:39;;;;;;;0.47;0.40;;;14.20;90.30;;;;;;5032365;28;20045;-70
2021/05/08 06:18:05;;;;;;;0.20;0.20;;;14.20;90.30;;;;;;5032456;28;20076;-69
2021/05/08 06:20:32;;;;;;;0.30;0.30;;;14.20;90.20;;;;;;5032013;28;20179;-69
2021/05/08 06:22:58;;;;;;;0.13;0.13;;;14.20;90.20;;;;;;5032357;28;20053;-69
2021/05/08 06:25:24;;;;;;;0.20;0.20;;;14.30;90.10;;;;;;5031846;28;20162;-69
2021/05/08 06:27:53;;;;;;;0.40;0.35;;;14.30;90.00;;;;;;5032126;28;20068;-69
2021/05/08 06:30:19;;;;;;;0.35;0.35;;;14.30;90.00;;;;;;5032332;28;20052;-70
2021/05/08 06:32:46;;;;;;;0.35;0.30;;;14.40;89.70;;;;;;5032075;28;20041;-69
2021/05/08 06:35:12;;;;;;;0.30;0.30;;;14.40;89.40;;;;;;5031818;28;20179;-69
2021/05/08 06:37:39;;;;;;;0.40;0.40;;;14.40;89.30;;;;;;5032070;28;20053;-69
2021/05/08 06:40:06;;;;;;;0.40;0.40;;;14.40;89.30;;;;;;5019227;28;20504;-69
2021/05/08 06:42:32;;;;;;;0.30;0.30;;;14.40;89.00;;;;;;5014471;28;20045;-69
2021/05/08 06:44:59;;;;;;;0.30;0.30;;;14.40;88.80;;;;;;5012445;28;20053;-69
2021/05/08 06:47:25;;;;;;;0.60;0.50;;;14.40;88.50;;;;;;5018786;28;20139;-70
2021/05/08 06:49:51;;;;;;;0.40;0.40;;;14.50;88.30;;;;;;5031111;28;20091;-70
2021/05/08 06:52:18;;;;;;;0.47;0.47;;;14.40;88.20;;;;;;5031101;28;20049;-69
2021/05/08 06:54:44;;;;;;;0.40;0.40;;;14.40;88.00;;;;;;5031390;28;20143;-69
2021/05/08 06:57:10;;;;;;;0.52;0.43;;;14.40;87.90;;;;;;5037723;28;20528;-70
2021/05/08 06:59:36;;;;;;;0.40;0.40;;;14.50;87.60;;;;;;5035232;28;20511;-70
2021/05/08 07:02:04;;;;;;;0.30;0.30;;;14.50;87.20;;;;;;5037535;28;20156;-70
2021/05/08 07:04:32;;;;;;;0.65;0.52;;;14.60;86.70;;;;;;5037315;28;20505;-70
2021/05/08 07:06:58;;;;;;;0.40;0.40;;;14.60;86.70;;;;;;5035317;28;20100;-70
2021/05/08 07:09:24;;;;;;;0.47;0.47;;;14.70;86.40;;;;;;5039245;28;20084;-70
2021/05/08 07:11:50;;;;;;;0.40;0.40;;;14.80;85.90;;;;;;5035896;28;20183;-70
2021/05/08 07:14:17;;;;;;;0.32;0.30;;;14.80;85.10;;;;;;5031893;28;20042;-71
2021/05/08 07:16:43;;;;;;;0.22;0.22;;;14.90;85.00;;;;;;5031412;28;20087;-69
2021/05/08 07:19:10;;;;;;;0.40;0.40;;;14.90;85.00;;;;;;5031878;28;20081;-70
2021/05/08 07:21:38;;;;;;;0.80;0.47;;;15.00;84.50;;;;;;5030021;28;20089;-69
2021/05/08 07:24:06;;;;;;;0.40;0.40;;;15.00;84.20;;;;;;5031449;28;20049;-69
2021/05/08 07:26:32;;;;;;;0.40;0.40;;;15.00;84.40;;;;;;5031461;28;20611;-69
2021/05/08 07:29:00;;;;;;;0.40;0.40;;;15.00;84.30;;;;;;5031314;28;20053;-70
2021/05/08 07:31:27;;;;;;;0.50;0.40;;;15.00;84.70;;;;;;5031612;28;20046;-69
2021/05/08 07:33:53;;;;;;;0.50;0.47;;;15.00;83.90;;;;;;5031042;28;20601;-69
2021/05/08 07:36:20;;;;;;;0.35;0.35;;;15.10;83.80;;;;;;5031715;28;20057;-69
2021/05/08 07:38:47;;;;;;;0.38;0.38;;;15.10;83.40;;;;;;5031067;28;20046;-68
2021/05/08 07:41:13;;;;;;;0.20;0.20;;;15.30;83.40;;;;;;5030164;28;20535;-68
2021/05/08 07:43:40;;;;;;;0.30;0.30;;;15.40;82.50;;;;;;5030163;28;20122;-68
2021/05/08 07:46:06;;;;;;;0.20;0.20;;;15.50;81.90;;;;;;5030770;28;20045;-68
2021/05/08 07:48:32;;;;;;;0.30;0.30;;;15.50;81.30;;;;;;5040430;28;20045;-68
2021/05/08 07:50:59;;;;;;;0.30;0.30;;;15.60;81.20;;;;;;5037589;28;20142;-68
2021/05/08 07:53:25;;;;;;;0.45;0.35;;;15.60;80.90;;;;;;5038186;28;20049;-68
2021/05/08 07:55:51;;;;;;;0.30;0.30;;;15.70;80.40;;;;;;5027902;28;20103;-64
2021/05/08 07:58:17;;;;;;;0.28;0.28;;;15.80;79.90;;;;;;5030907;28;20103;-64
2021/05/08 08:00:44;;;;;;;0.25;0.25;;;15.80;79.90;;;;;;5030663;28;20088;-64
2021/05/08 08:03:10;;;;;;;0.28;0.28;;;15.90;80.00;;;;;;5030685;28;20053;-64
2021/05/08 08:05:36;;;;;;;0.20;0.20;;;16.30;79.90;;;;;;5027743;28;20088;-64
2021/05/08 08:08:03;;;;;;;0.20;0.20;;;16.70;78.20;;;;;;5038279;28;20250;-63
2021/05/08 08:10:29;;;;;;;0.30;0.30;;;17.10;75.50;;;;;;5037951;28;20566;-64
2021/05/08 08:12:56;;;;;;;0.30;0.30;;;17.40;74.70;;;;;;5035058;28;20053;-70
2021/05/08 08:15:22;;;;;;;0.20;0.20;;;17.50;72.20;;;;;;5034235;28;20481;-69
2021/05/08 08:17:48;;;;;;;0.20;0.20;;;17.40;71.80;;;;;;5033923;28;20077;-64
2021/05/08 08:20:15;;;;;;;0.25;0.25;;;17.60;72.60;;;;;;5033990;28;20054;-68
2021/05/08 08:22:42;;;;;;;0.10;0.10;;;17.80;72.20;;;;;;5033602;28;20050;-69
2021/05/08 08:25:10;;;;;;;0.20;0.20;;;18.10;71.30;;;;;;5033349;28;20113;-68
2021/05/08 08:27:37;;;;;;;0.45;0.45;;;18.00;69.40;;;;;;5033730;28;20215;-67
2021/05/08 08:30:05;;;;;;;0.30;0.30;;;17.90;69.90;;;;;;5033010;28;20521;-69
2021/05/08 08:32:32;;;;;;;0.25;0.25;;;17.70;69.70;;;;;;5032599;28;20041;-68
2021/05/08 08:34:58;;;;;;;0.20;0.20;;;17.50;71.20;;;;;;5033214;28;20512;-66
2021/05/08 08:37:24;;;;;;;0.20;0.20;;;17.60;71.30;;;;;;5032742;28;20513;-67
2021/05/08 08:39:51;;;;;;;0.30;0.30;;;17.80;71.00;;;;;;5033191;28;20124;-67
2021/05/08 08:42:18;;;;;;;0.22;0.22;;;17.90;68.50;;;;;;5030673;28;20436;-71
2021/05/08 08:44:45;;;;;;;0.20;0.20;;;17.80;68.90;;;;;;5033478;28;20045;-67
2021/05/08 08:47:28;;;;;;;0.20;0.20;;;17.80;69.40;;;;;;5033144;28;20148;-67
2021/05/08 08:50:00;;;;;;;0.20;0.20;;;17.80;69.10;;;;;;5032534;28;20519;-67
2021/05/08 08:52:28;;;;;;;0.20;0.20;;;17.70;69.30;;;;;;5039755;28;20045;-68
2021/05/08 08:54:56;;;;;;;0.20;0.20;;;17.60;69.00;;;;;;5035076;28;20077;-68
2021/05/08 08:57:28;;;;;;;0.17;0.17;;;17.60;69.60;;;;;;5037048;28;20045;-69
2021/05/08 08:59:55;;;;;;;0.20;0.20;;;17.60;69.50;;;;;;5026907;28;20142;-68
2021/05/08 09:02:26;;;;;;;0.30;0.30;;;17.60;70.20;;;;;;5032630;28;20153;-67
2021/05/08 09:04:53;;;;;;;0.50;0.30;;;17.70;70.00;;;;;;5031518;28;20598;-69
2021/05/08 09:07:22;;;;;;;0.20;0.20;;;17.80;69.20;;;;;;5031489;28;20418;-68
2021/05/08 09:09:51;;;;;;;0.20;0.10;;;17.80;68.80;;;;;;5031168;28;20063;-69
2021/05/08 09:12:18;;;;;;;0.20;0.20;;;17.70;69.10;;;;;;5031498;28;20064;-69
2021/05/08 09:14:49;;;;;;;0.52;0.20;;;17.60;69.00;;;;;;5031479;28;20387;-67
2021/05/08 09:17:16;;;;;;;0.20;0.20;;;17.60;69.50;;;;;;5030558;28;20083;-68
2021/05/08 09:19:45;;;;;;;0.20;0.20;;;17.70;69.60;;;;;;5031070;28;20057;-70
2021/05/08 09:22:23;;;;;;;0.10;0.10;;;17.70;69.10;;;;;;5031566;28;20056;-70
2021/05/08 09:25:11;;;;;;;0.10;0.10;;;17.70;69.20;;;;;;5031501;28;20045;-68
2021/05/08 09:27:46;;;;;;;0.10;0.10;;;17.70;68.10;;;;;;5035733;28;20132;-68
2021/05/08 09:30:13;;;;;;;0.20;0.20;;;17.60;68.20;;;;;;5048589;28;20128;-67
2021/05/08 09:32:45;;;;;;;0.20;0.20;;;17.70;68.80;;;;;;5031075;28;20056;-67
2021/05/08 09:35:20;;;;;;;0.38;0.30;;;17.80;68.40;;;;;;5038624;28;20421;-67
2021/05/08 09:37:47;;;;;;;0.20;0.20;;;17.90;67.90;;;;;;5038851;28;20124;-67
2021/05/08 09:40:27;;;;;;;0.10;0.10;;;17.90;67.20;;;;;;5044264;28;20170;-68
2021/05/08 09:42:55;;;;;;;0.20;0.20;;;18.10;67.60;;;;;;5038375;28;20052;-65
2021/05/08 09:45:24;;;;;;;0.17;0.17;;;18.20;66.80;;;;;;5018102;28;20516;-67
2021/05/08 09:47:51;;;;;;;0.08;0.08;;;18.50;66.80;;;;;;5019146;28;20135;-67
2021/05/08 09:50:23;;;;;;;0.15;0.15;;;18.80;65.60;;;;;;5024527;28;20049;-67
2021/05/08 09:52:55;;;;;;;0.00;0.00;;;18.80;64.40;;;;;;5027830;28;20045;-67
2021/05/08 09:55:24;;;;;;;0.10;0.10;;;18.80;63.40;;;;;;5026122;28;20052;-67
2021/05/08 09:58:07;;;;;;;0.10;0.10;;;18.80;62.50;;;;;;5033121;28;20528;-68
2021/05/08 10:00:44;;;;;;;0.15;0.10;;;18.70;63.30;;;;;;5028785;28;20049;-67
2021/05/08 10:03:11;;;;;;;0.10;0.10;;;18.70;63.00;;;;;;5025902;28;20053;-67
2021/05/08 10:05:39;;;;;;;0.10;0.10;;;18.60;62.20;;;;;;5037287;28;20060;-67
2021/05/08 10:08:06;;;;;;;0.00;0.00;;;18.80;62.80;;;;;;5034871;28;20059;-68
2021/05/08 10:10:33;;;;;;;0.00;0.00;;;18.80;61.80;;;;;;5034665;28;20175;-68
2021/05/08 10:13:05;;;;;;;0.08;0.08;;;18.80;61.10;;;;;;5031139;28;20076;-68
2021/05/08 10:15:33;;;;;;;0.08;0.08;;;18.70;62.00;;;;;;5018450;28;20049;-69
2021/05/08 10:18:03;;;;;;;0.13;0.13;;;18.70;61.90;;;;;;5031732;28;20128;-69
2021/05/08 10:20:30;;;;;;;0.25;0.10;;;18.70;61.40;;;;;;5027414;28;20532;-69
2021/05/08 10:23:05;;;;;;;0.10;0.10;;;18.70;60.50;;;;;;5027580;28;20128;-69
2021/05/08 10:25:32;;;;;;;0.10;0.10;;;18.50;61.40;;;;;;5039339;28;20179;-66
2021/05/08 10:27:59;;;;;;;0.10;0.10;;;18.60;61.80;;;;;;5042391;28;20126;-66
2021/05/08 10:30:35;;;;;;;0.15;0.10;;;18.70;61.30;;;;;;5040118;28;20064;-66
2021/05/08 10:33:08;;;;;;;0.00;0.00;;;18.80;61.00;;;;;;5041967;28;20094;-66
2021/05/08 10:35:43;;;;;;;0.10;0.10;;;18.80;60.90;;;;;;5040417;28;20042;-66
2021/05/08 10:38:34;;;;;;;0.00;0.00;;;18.80;61.00;;;;;;5042069;28;20049;-66
2021/05/08 10:41:11;;;;;;;0.10;0.10;;;18.80;60.90;;;;;;5031687;28;20133;-66
2021/05/08 10:43:49;;;;;;;0.65;0.13;;;18.80;61.10;;;;;;5037885;28;20048;-66
2021/05/08 10:46:17;;;;;;;0.00;0.00;;;18.90;60.50;;;;;;5032372;28;20045;-66
2021/05/08 10:49:06;;;;;;;0.10;0.10;;;19.00;59.70;;;;;;5042934;28;20128;-66
2021/05/08 10:51:55;;;;;;;0.00;0.00;;;19.00;59.20;;;;;;5039785;28;20082;-66
2021/05/08 10:54:42;;;;;;;0.08;0.08;;;19.10;58.60;;;;;;5049661;28;20471;-66
2021/05/08 10:57:25;;;;;;;0.00;0.00;;;19.20;57.50;;;;;;5050566;28;20064;-66
2021/05/08 11:00:01;;;;;;;0.00;0.00;;;19.20;57.30;;;;;;5039427;28;20124;-70
2021/05/08 11:02:43;;;;;;;0.00;0.00;;;19.10;56.90;;;;;;5036128;28;20068;-66
2021/05/08 11:05:19;;;;;;;0.10;0.00;;;19.00;57.40;;;;;;5033467;28;20083;-67
2021/05/08 11:07:45;;;;;;;0.00;0.00;;;18.90;57.40;;;;;;5036252;28;20518;-66
2021/05/08 11:10:33;;;;;;;0.00;0.00;;;18.90;57.60;;;;;;5033568;28;20045;-68
2021/05/08 11:13:09;;;;;;;0.10;0.10;;;18.90;58.30;;;;;;5033097;28;20084;-67
2021/05/08 11:18:35;;;;;;;0.00;0.00;;;18.90;58.70;;;;;;5030795;28;20046;-65
2021/05/08 11:21:10;;;;;;;0.00;0.00;;;19.00;58.80;;;;;;5031020;28;20136;-65
2021/05/08 11:24:04;;;;;;;0.00;0.00;;;19.10;57.90;;;;;;5030016;28;20110;-65
2021/05/08 11:26:35;;;;;;;0.00;0.00;;;19.10;57.00;;;;;;5030326;28;20367;-65
2021/05/08 11:29:08;;;;;;;;;;;19.20;57.00;;;;;;5030570;28;20056;-65
2021/05/08 11:31:49;;;;;;;0.00;0.00;;;19.30;56.70;;;;;;5032644;28;19925;-65
2021/05/08 11:34:23;;;;;;;0.00;0.00;;;19.40;57.70;;;;;;5035587;28;20521;-66
2021/05/08 11:37:00;;;;;;;0.00;0.00;;;19.60;55.80;;;;;;5047357;28;20049;-68
2021/05/08 11:39:30;;;;;;;0.10;0.10;;;19.70;55.50;;;;;;5021049;28;20049;-65
2021/05/08 11:42:10;;;;;;;0.00;0.00;;;19.90;54.30;;;;;;5035211;28;20045;-69
2021/05/08 11:44:38;;;;;;;0.00;0.00;;;19.90;53.50;;;;;;5035983;28;20106;-64
2021/05/08 11:49:59;;;;;;;0.00;0.00;;;20.00;54.00;;;;;;5027181;28;20256;-64
2021/05/08 11:52:44;;;;;;;0.00;0.00;;;20.00;54.50;;;;;;5034580;28;20052;-64
2021/05/08 11:55:13;;;;;;;0.00;0.00;;;20.00;53.80;;;;;;5031387;28;20081;-64
2021/05/08 11:57:48;;;;;;;0.30;0.00;;;20.00;52.70;;;;;;5037618;28;20053;-64
2021/05/08 12:00:19;;;;;;;0.00;0.00;;;20.00;52.20;;;;;;5039298;28;20136;-64
2021/05/08 12:02:47;;;;;;;0.10;0.10;;;20.00;52.40;;;;;;5040607;28;20085;-65
2021/05/08 12:05:14;;;;;;;0.00;0.00;;;20.00;52.20;;;;;;5037922;28;20118;-69
2021/05/08 12:07:42;;;;;;;0.30;0.05;;;20.00;52.30;;;;;;5041879;28;20131;-66
2021/05/08 12:10:16;;;;;;;0.22;0.00;;;19.90;52.10;;;;;;5038326;28;20211;-65
2021/05/08 12:12:50;;;;;;;0.00;0.00;;;19.90;51.80;;;;;;5037664;28;20049;-67
2021/05/08 12:15:39;;;;;;;0.00;0.00;;;20.00;52.00;;;;;;5033631;28;20041;-68
2021/05/08 12:18:10;;;;;;;0.00;0.00;;;20.00;51.60;;;;;;5033894;28;20046;-68
2021/05/08 12:20:44;;;;;;;0.00;0.00;;;20.10;51.80;;;;;;5033708;28;20064;-69
2021/05/08 12:23:16;;;;;;;0.00;0.00;;;20.10;51.00;;;;;;5033550;28;20469;-68
2021/05/08 12:25:43;;;;;;;0.00;0.00;;;20.10;51.00;;;;;;5033114;28;20493;-69
2021/05/08 12:28:15;;;;;;;0.00;0.00;;;20.10;51.40;;;;;;5033877;28;20132;-70
2021/05/08 12:30:42;;;;;;;0.00;0.00;;;20.20;51.40;;;;;;5032795;28;20627;-70
2021/05/08 12:33:23;;;;;;;0.00;0.00;;;20.20;50.70;;;;;;5033546;28;20493;-70
2021/05/08 12:35:53;;;;;;;0.00;0.00;;;20.20;51.20;;;;;;5032613;28;20421;-67
2021/05/08 12:38:29;;;;;;;0.00;0.00;;;20.30;51.20;;;;;;5033745;28;20195;-69
2021/05/08 12:40:55;;;;;;;0.00;0.00;;;20.30;51.10;;;;;;5033081;28;20057;-69
2021/05/08 12:43:31;;;;;;;0.00;0.00;;;20.40;51.40;;;;;;5033410;28;20099;-70
2021/05/08 12:46:04;;;;;;;0.00;0.00;;;20.40;50.50;;;;;;5032974;28;20045;-75
2021/05/08 12:48:38;;;;;;;0.00;0.00;;;20.50;50.50;;;;;;5032000;28;20541;-68
2021/05/08 12:51:30;;;;;;;0.00;0.00;;;20.50;50.50;;;;;;5032329;28;20544;-68
2021/05/08 12:54:25;;;;;;;0.00;0.00;;;20.50;50.00;;;;;;5029558;28;20067;-69
2021/05/08 12:57:08;;;;;;;0.00;0.00;;;20.50;49.60;;;;;;5031991;28;20501;-68
2021/05/08 12:59:34;;;;;;;0.00;0.00;;;20.50;49.40;;;;;;5031921;28;20128;-68
2021/05/08 13:02:31;;;;;;;0.00;0.00;;;20.50;49.10;;;;;;5031978;28;20553;-68